sensor_id;sensor_type;location;lat;lon;timestamp;P1;durP1;ratioP1;P2;durP2;ratioP2
55815;SDS011;41744;52.404;16.942;2022-10-17T00:00:47;25.00;;;12.38;;
55815;SDS011;41744;52.404;16.942;2022-10-17T00:03:13;25.10;;;12.57;;
55815;SDS011;41744;52.404;16.942;2022-10-17T00:05:40;25.48;;;12.00;;
55815;SDS011;41744;52.404;16.942;2022-10-17T00:08:07;26.85;;;13.40;;
55815;SDS011;41744;52.404;16.942;2022-10-17T00:10:33;24.35;;;12.85;;
55815;SDS011;41744;52.404;16.942;2022-10-17T00:12:59;27.23;;;12.75;;
55815;SDS011;41744;52.404;16.942;2022-10-17T00:15:25;31.25;;;12.70;;
55815;SDS011;41744;52.404;16.942;2022-10-17T00:17:51;25.63;;;11.90;;
55815;SDS011;41744;52.404;16.942;2022-10-17T00:20:17;24.58;;;12.13;;
55815;SDS011;41744;52.404;16.942;2022-10-17T00:22:43;26.88;;;11.43;;
55815;SDS011;41744;52.404;16.942;2022-10-17T00:25:09;26.38;;;12.55;;
55815;SDS011;41744;52.404;16.942;2022-10-17T00:27:36;30.75;;;13.27;;
55815;SDS011;41744;52.404;16.942;2022-10-17T00:30:03;23.35;;;11.63;;
55815;SDS011;41744;52.404;16.942;2022-10-17T00:32:29;26.35;;;12.02;;
55815;SDS011;41744;52.404;16.942;2022-10-17T00:34:56;24.20;;;12.15;;
55815;SDS011;41744;52.404;16.942;2022-10-17T00:37:22;22.67;;;11.30;;
55815;SDS011;41744;52.404;16.942;2022-10-17T00:39:48;25.20;;;11.80;;
55815;SDS011;41744;52.404;16.942;2022-10-17T00:42:14;25.27;;;12.60;;
55815;SDS011;41744;52.404;16.942;2022-10-17T00:47:07;26.88;;;12.60;;
55815;SDS011;41744;52.404;16.942;2022-10-17T00:49:35;25.58;;;12.75;;
55815;SDS011;41744;52.404;16.942;2022-10-17T00:52:02;26.30;;;13.15;;
55815;SDS011;41744;52.404;16.942;2022-10-17T00:55:15;28.83;;;13.35;;
55815;SDS011;41744;52.404;16.942;2022-10-17T00:57:15;27.45;;;12.95;;
55815;SDS011;41744;52.404;16.942;2022-10-17T00:59:42;27.05;;;13.52;;
55815;SDS011;41744;52.404;16.942;2022-10-17T01:02:11;25.83;;;12.82;;
55815;SDS011;41744;52.404;16.942;2022-10-17T01:04:38;29.27;;;14.35;;
55815;SDS011;41744;52.404;16.942;2022-10-17T01:07:04;32.70;;;13.40;;
55815;SDS011;41744;52.404;16.942;2022-10-17T01:09:30;24.55;;;12.77;;
55815;SDS011;41744;52.404;16.942;2022-10-17T01:22:32;28.52;;;14.30;;
55815;SDS011;41744;52.404;16.942;2022-10-17T01:25:11;27.00;;;13.32;;
55815;SDS011;41744;52.404;16.942;2022-10-17T01:27:58;27.75;;;13.70;;
55815;SDS011;41744;52.404;16.942;2022-10-17T01:33:15;28.70;;;14.38;;
55815;SDS011;41744;52.404;16.942;2022-10-17T01:38:18;29.30;;;15.27;;
55815;SDS011;41744;52.404;16.942;2022-10-17T01:40:48;33.08;;;15.20;;
55815;SDS011;41744;52.404;16.942;2022-10-17T01:43:25;31.30;;;16.48;;
55815;SDS011;41744;52.404;16.942;2022-10-17T01:45:57;31.42;;;16.52;;
55815;SDS011;41744;52.404;16.942;2022-10-17T01:48:25;35.75;;;16.90;;
55815;SDS011;41744;52.404;16.942;2022-10-17T01:50:58;30.30;;;15.27;;
55815;SDS011;41744;52.404;16.942;2022-10-17T01:53:27;32.75;;;15.07;;
55815;SDS011;41744;52.404;16.942;2022-10-17T01:55:55;30.88;;;15.07;;
55815;SDS011;41744;52.404;16.942;2022-10-17T01:58:24;30.35;;;15.60;;
55815;SDS011;41744;52.404;16.942;2022-10-17T02:00:52;29.38;;;15.10;;
55815;SDS011;41744;52.404;16.942;2022-10-17T02:03:19;29.83;;;14.95;;
55815;SDS011;41744;52.404;16.942;2022-10-17T02:05:45;26.90;;;14.68;;
55815;SDS011;41744;52.404;16.942;2022-10-17T02:08:12;30.60;;;15.43;;
55815;SDS011;41744;52.404;16.942;2022-10-17T02:21:06;30.73;;;16.35;;
55815;SDS011;41744;52.404;16.942;2022-10-17T02:26:02;34.33;;;18.15;;
55815;SDS011;41744;52.404;16.942;2022-10-17T02:28:35;36.28;;;17.85;;
55815;SDS011;41744;52.404;16.942;2022-10-17T02:31:21;36.40;;;18.45;;
55815;SDS011;41744;52.404;16.942;2022-10-17T02:34:00;36.63;;;18.80;;
55815;SDS011;41744;52.404;16.942;2022-10-17T02:36:49;33.42;;;18.33;;
55815;SDS011;41744;52.404;16.942;2022-10-17T02:39:13;34.03;;;18.05;;
55815;SDS011;41744;52.404;16.942;2022-10-17T02:41:40;38.97;;;18.33;;
55815;SDS011;41744;52.404;16.942;2022-10-17T02:44:07;33.20;;;17.33;;
55815;SDS011;41744;52.404;16.942;2022-10-17T02:46:34;29.75;;;16.80;;
55815;SDS011;41744;52.404;16.942;2022-10-17T02:49:07;31.27;;;16.23;;
55815;SDS011;41744;52.404;16.942;2022-10-17T02:51:43;33.42;;;16.05;;
55815;SDS011;41744;52.404;16.942;2022-10-17T02:56:38;32.30;;;16.75;;
55815;SDS011;41744;52.404;16.942;2022-10-17T02:59:06;29.00;;;16.60;;
55815;SDS011;41744;52.404;16.942;2022-10-17T03:01:34;34.75;;;17.25;;
55815;SDS011;41744;52.404;16.942;2022-10-17T03:04:07;32.35;;;16.98;;
55815;SDS011;41744;52.404;16.942;2022-10-17T03:06:34;33.50;;;17.10;;
55815;SDS011;41744;52.404;16.942;2022-10-17T03:09:00;32.58;;;16.80;;
55815;SDS011;41744;52.404;16.942;2022-10-17T03:11:26;32.50;;;16.42;;
55815;SDS011;41744;52.404;16.942;2022-10-17T03:13:52;31.55;;;15.90;;
55815;SDS011;41744;52.404;16.942;2022-10-17T03:16:18;29.75;;;16.25;;
55815;SDS011;41744;52.404;16.942;2022-10-17T03:18:44;30.52;;;15.48;;
55815;SDS011;41744;52.404;16.942;2022-10-17T03:21:10;28.33;;;15.85;;
55815;SDS011;41744;52.404;16.942;2022-10-17T03:23:35;30.80;;;15.18;;
55815;SDS011;41744;52.404;16.942;2022-10-17T03:26:05;31.83;;;15.93;;
55815;SDS011;41744;52.404;16.942;2022-10-17T03:28:31;34.47;;;16.48;;
55815;SDS011;41744;52.404;16.942;2022-10-17T03:30:57;28.95;;;15.30;;
55815;SDS011;41744;52.404;16.942;2022-10-17T03:33:23;32.38;;;16.33;;
55815;SDS011;41744;52.404;16.942;2022-10-17T03:35:49;36.05;;;16.33;;
55815;SDS011;41744;52.404;16.942;2022-10-17T03:38:15;28.70;;;15.25;;
55815;SDS011;41744;52.404;16.942;2022-10-17T03:40:41;30.30;;;15.95;;
55815;SDS011;41744;52.404;16.942;2022-10-17T03:43:07;33.53;;;16.17;;
55815;SDS011;41744;52.404;16.942;2022-10-17T03:45:35;29.90;;;15.55;;
55815;SDS011;41744;52.404;16.942;2022-10-17T03:48:01;29.33;;;15.00;;
55815;SDS011;41744;52.404;16.942;2022-10-17T03:50:27;30.15;;;15.63;;
55815;SDS011;41744;52.404;16.942;2022-10-17T03:52:53;29.45;;;15.05;;
55815;SDS011;41744;52.404;16.942;2022-10-17T03:55:19;30.70;;;15.75;;
55815;SDS011;41744;52.404;16.942;2022-10-17T03:57:45;31.30;;;15.68;;
55815;SDS011;41744;52.404;16.942;2022-10-17T04:00:11;30.45;;;15.85;;
55815;SDS011;41744;52.404;16.942;2022-10-17T04:02:37;30.75;;;15.45;;
55815;SDS011;41744;52.404;16.942;2022-10-17T04:05:03;31.58;;;16.20;;
55815;SDS011;41744;52.404;16.942;2022-10-17T04:07:29;30.90;;;15.35;;
55815;SDS011;41744;52.404;16.942;2022-10-17T04:09:55;32.60;;;15.90;;
55815;SDS011;41744;52.404;16.942;2022-10-17T04:12:21;27.83;;;15.02;;
55815;SDS011;41744;52.404;16.942;2022-10-17T04:14:47;33.97;;;15.50;;
55815;SDS011;41744;52.404;16.942;2022-10-17T04:17:13;32.83;;;15.25;;
55815;SDS011;41744;52.404;16.942;2022-10-17T04:19:39;30.10;;;15.70;;
55815;SDS011;41744;52.404;16.942;2022-10-17T04:22:05;33.33;;;15.85;;
55815;SDS011;41744;52.404;16.942;2022-10-17T04:24:32;32.67;;;16.73;;
55815;SDS011;41744;52.404;16.942;2022-10-17T04:26:58;32.40;;;16.15;;
55815;SDS011;41744;52.404;16.942;2022-10-17T04:29:24;29.25;;;16.05;;
55815;SDS011;41744;52.404;16.942;2022-10-17T04:31:50;32.50;;;16.40;;
55815;SDS011;41744;52.404;16.942;2022-10-17T04:34:17;30.00;;;15.65;;
55815;SDS011;41744;52.404;16.942;2022-10-17T04:36:43;29.85;;;15.45;;
55815;SDS011;41744;52.404;16.942;2022-10-17T04:39:09;32.40;;;16.52;;
55815;SDS011;41744;52.404;16.942;2022-10-17T04:41:35;32.85;;;15.35;;
55815;SDS011;41744;52.404;16.942;2022-10-17T04:44:01;29.83;;;15.52;;
55815;SDS011;41744;52.404;16.942;2022-10-17T04:46:27;33.13;;;15.32;;
55815;SDS011;41744;52.404;16.942;2022-10-17T04:48:54;33.42;;;15.57;;
55815;SDS011;41744;52.404;16.942;2022-10-17T04:51:20;36.42;;;16.38;;
55815;SDS011;41744;52.404;16.942;2022-10-17T04:53:46;28.42;;;15.60;;
55815;SDS011;41744;52.404;16.942;2022-10-17T04:56:13;31.67;;;15.95;;
55815;SDS011;41744;52.404;16.942;2022-10-17T04:58:40;30.98;;;15.90;;
55815;SDS011;41744;52.404;16.942;2022-10-17T05:01:06;30.05;;;15.05;;
55815;SDS011;41744;52.404;16.942;2022-10-17T05:03:33;34.55;;;15.43;;
55815;SDS011;41744;52.404;16.942;2022-10-17T05:06:06;27.20;;;15.13;;
55815;SDS011;41744;52.404;16.942;2022-10-17T05:08:32;30.30;;;14.75;;
55815;SDS011;41744;52.404;16.942;2022-10-17T05:10:58;30.70;;;14.48;;
55815;SDS011;41744;52.404;16.942;2022-10-17T05:13:24;29.77;;;15.88;;
55815;SDS011;41744;52.404;16.942;2022-10-17T05:15:50;35.03;;;16.42;;
55815;SDS011;41744;52.404;16.942;2022-10-17T05:18:16;33.30;;;17.63;;
55815;SDS011;41744;52.404;16.942;2022-10-17T05:20:42;32.15;;;16.75;;
55815;SDS011;41744;52.404;16.942;2022-10-17T05:23:08;37.10;;;17.98;;
55815;SDS011;41744;52.404;16.942;2022-10-17T05:25:34;32.20;;;16.17;;
55815;SDS011;41744;52.404;16.942;2022-10-17T05:28:00;30.67;;;15.50;;
55815;SDS011;41744;52.404;16.942;2022-10-17T05:30:26;35.67;;;17.67;;
55815;SDS011;41744;52.404;16.942;2022-10-17T05:32:53;32.42;;;17.30;;
55815;SDS011;41744;52.404;16.942;2022-10-17T05:35:19;34.97;;;18.00;;
55815;SDS011;41744;52.404;16.942;2022-10-17T05:37:45;35.60;;;18.13;;
55815;SDS011;41744;52.404;16.942;2022-10-17T05:40:11;35.60;;;17.92;;
55815;SDS011;41744;52.404;16.942;2022-10-17T05:42:37;32.42;;;16.60;;
55815;SDS011;41744;52.404;16.942;2022-10-17T05:45:04;33.08;;;17.15;;
55815;SDS011;41744;52.404;16.942;2022-10-17T05:47:30;32.85;;;17.20;;
55815;SDS011;41744;52.404;16.942;2022-10-17T05:49:56;35.50;;;17.27;;
55815;SDS011;41744;52.404;16.942;2022-10-17T05:52:22;33.30;;;15.77;;
55815;SDS011;41744;52.404;16.942;2022-10-17T05:54:48;31.70;;;16.92;;
55815;SDS011;41744;52.404;16.942;2022-10-17T05:57:14;34.00;;;16.70;;
55815;SDS011;41744;52.404;16.942;2022-10-17T05:59:40;32.25;;;16.58;;
55815;SDS011;41744;52.404;16.942;2022-10-17T06:02:06;34.08;;;16.88;;
55815;SDS011;41744;52.404;16.942;2022-10-17T06:04:32;32.70;;;16.88;;
55815;SDS011;41744;52.404;16.942;2022-10-17T06:06:58;30.17;;;16.42;;
55815;SDS011;41744;52.404;16.942;2022-10-17T06:09:24;30.58;;;15.93;;
55815;SDS011;41744;52.404;16.942;2022-10-17T06:11:50;32.30;;;16.00;;
55815;SDS011;41744;52.404;16.942;2022-10-17T06:14:16;29.10;;;14.98;;
55815;SDS011;41744;52.404;16.942;2022-10-17T06:16:42;28.75;;;14.68;;
55815;SDS011;41744;52.404;16.942;2022-10-17T06:19:08;32.03;;;14.95;;
55815;SDS011;41744;52.404;16.942;2022-10-17T06:21:35;27.48;;;13.80;;
55815;SDS011;41744;52.404;16.942;2022-10-17T06:24:03;28.52;;;14.70;;
55815;SDS011;41744;52.404;16.942;2022-10-17T06:26:29;25.42;;;12.68;;
55815;SDS011;41744;52.404;16.942;2022-10-17T06:28:54;27.25;;;13.70;;
55815;SDS011;41744;52.404;16.942;2022-10-17T06:31:20;26.73;;;13.90;;
55815;SDS011;41744;52.404;16.942;2022-10-17T06:33:46;31.20;;;13.13;;
55815;SDS011;41744;52.404;16.942;2022-10-17T06:36:13;24.63;;;12.75;;
55815;SDS011;41744;52.404;16.942;2022-10-17T06:38:39;28.77;;;14.23;;
55815;SDS011;41744;52.404;16.942;2022-10-17T06:41:10;27.65;;;15.07;;
55815;SDS011;41744;52.404;16.942;2022-10-17T06:43:38;24.85;;;15.20;;
55815;SDS011;41744;52.404;16.942;2022-10-17T06:46:04;28.63;;;16.30;;
55815;SDS011;41744;52.404;16.942;2022-10-17T06:48:30;31.45;;;16.55;;
55815;SDS011;41744;52.404;16.942;2022-10-17T06:50:57;32.65;;;16.63;;
55815;SDS011;41744;52.404;16.942;2022-10-17T06:53:25;29.55;;;16.60;;
55815;SDS011;41744;52.404;16.942;2022-10-17T06:55:52;33.05;;;16.35;;
55815;SDS011;41744;52.404;16.942;2022-10-17T06:58:19;30.45;;;16.35;;
55815;SDS011;41744;52.404;16.942;2022-10-17T07:00:45;30.95;;;16.73;;
55815;SDS011;41744;52.404;16.942;2022-10-17T07:03:11;32.97;;;18.77;;
55815;SDS011;41744;52.404;16.942;2022-10-17T07:05:37;35.78;;;18.30;;
55815;SDS011;41744;52.404;16.942;2022-10-17T07:08:03;38.58;;;19.27;;
55815;SDS011;41744;52.404;16.942;2022-10-17T07:10:29;35.50;;;17.92;;
55815;SDS011;41744;52.404;16.942;2022-10-17T07:13:02;34.10;;;18.15;;
55815;SDS011;41744;52.404;16.942;2022-10-17T07:15:27;32.28;;;18.30;;
55815;SDS011;41744;52.404;16.942;2022-10-17T07:17:53;35.88;;;18.55;;
55815;SDS011;41744;52.404;16.942;2022-10-17T07:20:21;31.95;;;17.65;;
55815;SDS011;41744;52.404;16.942;2022-10-17T07:22:47;31.83;;;18.45;;
55815;SDS011;41744;52.404;16.942;2022-10-17T07:25:13;34.78;;;18.23;;
55815;SDS011;41744;52.404;16.942;2022-10-17T07:27:39;33.45;;;17.70;;
55815;SDS011;41744;52.404;16.942;2022-10-17T07:30:05;33.35;;;18.20;;
55815;SDS011;41744;52.404;16.942;2022-10-17T07:32:31;37.65;;;18.35;;
55815;SDS011;41744;52.404;16.942;2022-10-17T07:34:57;36.90;;;18.17;;
55815;SDS011;41744;52.404;16.942;2022-10-17T07:37:23;37.53;;;19.10;;
55815;SDS011;41744;52.404;16.942;2022-10-17T07:39:49;39.78;;;19.20;;
55815;SDS011;41744;52.404;16.942;2022-10-17T07:42:15;42.03;;;19.48;;
55815;SDS011;41744;52.404;16.942;2022-10-17T07:44:41;42.10;;;20.00;;
55815;SDS011;41744;52.404;16.942;2022-10-17T07:47:10;34.17;;;19.95;;
55815;SDS011;41744;52.404;16.942;2022-10-17T07:49:36;39.55;;;20.40;;
55815;SDS011;41744;52.404;16.942;2022-10-17T07:52:07;38.40;;;20.05;;
55815;SDS011;41744;52.404;16.942;2022-10-17T07:54:33;38.83;;;20.45;;
55815;SDS011;41744;52.404;16.942;2022-10-17T07:56:59;36.05;;;19.90;;
55815;SDS011;41744;52.404;16.942;2022-10-17T07:59:25;40.35;;;21.77;;
55815;SDS011;41744;52.404;16.942;2022-10-17T08:01:54;42.22;;;22.42;;
55815;SDS011;41744;52.404;16.942;2022-10-17T08:04:20;45.03;;;22.10;;
55815;SDS011;41744;52.404;16.942;2022-10-17T08:06:46;39.10;;;21.60;;
55815;SDS011;41744;52.404;16.942;2022-10-17T08:09:12;45.05;;;21.95;;
55815;SDS011;41744;52.404;16.942;2022-10-17T08:11:38;37.03;;;19.92;;
55815;SDS011;41744;52.404;16.942;2022-10-17T08:14:04;40.25;;;21.73;;
55815;SDS011;41744;52.404;16.942;2022-10-17T08:16:30;42.63;;;21.85;;
55815;SDS011;41744;52.404;16.942;2022-10-17T08:18:56;40.83;;;21.67;;
55815;SDS011;41744;52.404;16.942;2022-10-17T08:21:22;38.70;;;20.90;;
55815;SDS011;41744;52.404;16.942;2022-10-17T08:23:48;41.97;;;21.63;;
55815;SDS011;41744;52.404;16.942;2022-10-17T08:26:14;44.45;;;20.98;;
55815;SDS011;41744;52.404;16.942;2022-10-17T08:28:41;43.65;;;21.13;;
55815;SDS011;41744;52.404;16.942;2022-10-17T08:31:08;38.45;;;21.10;;
55815;SDS011;41744;52.404;16.942;2022-10-17T08:33:35;39.35;;;20.70;;
55815;SDS011;41744;52.404;16.942;2022-10-17T08:36:01;36.13;;;20.42;;
55815;SDS011;41744;52.404;16.942;2022-10-17T08:38:28;40.65;;;21.02;;
55815;SDS011;41744;52.404;16.942;2022-10-17T08:40:56;40.90;;;20.95;;
55815;SDS011;41744;52.404;16.942;2022-10-17T08:43:37;38.10;;;20.60;;
55815;SDS011;41744;52.404;16.942;2022-10-17T08:46:06;38.70;;;20.60;;
55815;SDS011;41744;52.404;16.942;2022-10-17T08:48:40;39.97;;;20.73;;
55815;SDS011;41744;52.404;16.942;2022-10-17T08:51:18;38.70;;;21.00;;
55815;SDS011;41744;52.404;16.942;2022-10-17T08:53:47;42.17;;;21.17;;
55815;SDS011;41744;52.404;16.942;2022-10-17T08:56:22;37.72;;;20.45;;
55815;SDS011;41744;52.404;16.942;2022-10-17T08:58:48;43.30;;;20.17;;
55815;SDS011;41744;52.404;16.942;2022-10-17T09:06:32;34.97;;;20.40;;
55815;SDS011;41744;52.404;16.942;2022-10-17T09:09:02;43.05;;;20.63;;
55815;SDS011;41744;52.404;16.942;2022-10-17T09:11:41;34.50;;;19.45;;
55815;SDS011;41744;52.404;16.942;2022-10-17T09:14:20;38.20;;;19.13;;
55815;SDS011;41744;52.404;16.942;2022-10-17T09:19:31;33.30;;;18.55;;
55815;SDS011;41744;52.404;16.942;2022-10-17T09:22:00;31.55;;;18.38;;
55815;SDS011;41744;52.404;16.942;2022-10-17T09:30:11;33.97;;;17.73;;
55815;SDS011;41744;52.404;16.942;2022-10-17T09:32:40;28.25;;;16.27;;
55815;SDS011;41744;52.404;16.942;2022-10-17T09:35:11;31.30;;;17.17;;
55815;SDS011;41744;52.404;16.942;2022-10-17T09:37:38;35.38;;;16.35;;
55815;SDS011;41744;52.404;16.942;2022-10-17T09:40:04;30.95;;;16.10;;
55815;SDS011;41744;52.404;16.942;2022-10-17T09:42:31;28.30;;;15.90;;
55815;SDS011;41744;52.404;16.942;2022-10-17T09:49:51;24.05;;;15.23;;
55815;SDS011;41744;52.404;16.942;2022-10-17T09:54:56;27.45;;;14.48;;
55815;SDS011;41744;52.404;16.942;2022-10-17T09:57:24;26.65;;;14.57;;
55815;SDS011;41744;52.404;16.942;2022-10-17T10:00:04;25.08;;;14.90;;
55815;SDS011;41744;52.404;16.942;2022-10-17T10:02:30;27.20;;;15.05;;
55815;SDS011;41744;52.404;16.942;2022-10-17T10:05:02;27.55;;;15.82;;
55815;SDS011;41744;52.404;16.942;2022-10-17T10:07:29;31.88;;;15.27;;
55815;SDS011;41744;52.404;16.942;2022-10-17T10:09:56;25.15;;;14.55;;
55815;SDS011;41744;52.404;16.942;2022-10-17T10:12:26;28.30;;;16.25;;
55815;SDS011;41744;52.404;16.942;2022-10-17T10:14:53;27.02;;;14.98;;
55815;SDS011;41744;52.404;16.942;2022-10-17T10:19:57;24.50;;;14.77;;
55815;SDS011;41744;52.404;16.942;2022-10-17T10:22:24;22.85;;;14.05;;
55815;SDS011;41744;52.404;16.942;2022-10-17T10:25:06;26.73;;;13.48;;
55815;SDS011;41744;52.404;16.942;2022-10-17T10:27:32;21.98;;;13.05;;
55815;SDS011;41744;52.404;16.942;2022-10-17T10:29:58;26.25;;;12.70;;
55815;SDS011;41744;52.404;16.942;2022-10-17T10:32:26;23.20;;;11.45;;
55815;SDS011;41744;52.404;16.942;2022-10-17T10:34:54;22.00;;;12.35;;
55815;SDS011;41744;52.404;16.942;2022-10-17T10:37:21;22.08;;;12.05;;
55815;SDS011;41744;52.404;16.942;2022-10-17T10:39:49;21.75;;;11.63;;
55815;SDS011;41744;52.404;16.942;2022-10-17T10:44:48;20.88;;;10.60;;
55815;SDS011;41744;52.404;16.942;2022-10-17T10:47:17;25.45;;;11.85;;
55815;SDS011;41744;52.404;16.942;2022-10-17T10:49:43;23.42;;;11.50;;
55815;SDS011;41744;52.404;16.942;2022-10-17T10:52:16;18.88;;;11.80;;
55815;SDS011;41744;52.404;16.942;2022-10-17T10:54:53;27.02;;;13.05;;
55815;SDS011;41744;52.404;16.942;2022-10-17T10:57:20;24.20;;;12.95;;
55815;SDS011;41744;52.404;16.942;2022-10-17T10:59:59;20.40;;;12.23;;
55815;SDS011;41744;52.404;16.942;2022-10-17T11:02:36;20.63;;;11.80;;
55815;SDS011;41744;52.404;16.942;2022-10-17T11:05:13;19.52;;;11.43;;
55815;SDS011;41744;52.404;16.942;2022-10-17T11:08:28;18.75;;;11.50;;
55815;SDS011;41744;52.404;16.942;2022-10-17T11:10:30;20.92;;;11.18;;
55815;SDS011;41744;52.404;16.942;2022-10-17T11:13:00;22.50;;;11.40;;
55815;SDS011;41744;52.404;16.942;2022-10-17T11:23:27;16.90;;;9.93;;
55815;SDS011;41744;52.404;16.942;2022-10-17T11:25:53;17.05;;;9.85;;
55815;SDS011;41744;52.404;16.942;2022-10-17T11:28:22;19.77;;;10.38;;
55815;SDS011;41744;52.404;16.942;2022-10-17T11:33:22;19.55;;;9.50;;
55815;SDS011;41744;52.404;16.942;2022-10-17T11:35:49;18.15;;;9.55;;
55815;SDS011;41744;52.404;16.942;2022-10-17T11:38:17;16.83;;;9.38;;
55815;SDS011;41744;52.404;16.942;2022-10-17T11:40:47;17.35;;;9.55;;
55815;SDS011;41744;52.404;16.942;2022-10-17T11:43:25;15.05;;;9.10;;
55815;SDS011;41744;52.404;16.942;2022-10-17T11:45:57;16.77;;;9.38;;
55815;SDS011;41744;52.404;16.942;2022-10-17T11:48:26;13.23;;;8.65;;
55815;SDS011;41744;52.404;16.942;2022-10-17T11:50:56;14.65;;;9.32;;
55815;SDS011;41744;52.404;16.942;2022-10-17T11:53:26;14.93;;;9.40;;
55815;SDS011;41744;52.404;16.942;2022-10-17T11:55:53;17.13;;;8.93;;
55815;SDS011;41744;52.404;16.942;2022-10-17T11:58:26;14.40;;;8.95;;
55815;SDS011;41744;52.404;16.942;2022-10-17T12:08:35;17.85;;;10.70;;
55815;SDS011;41744;52.404;16.942;2022-10-17T12:13:45;16.33;;;9.98;;
55815;SDS011;41744;52.404;16.942;2022-10-17T12:21:27;15.20;;;9.38;;
55815;SDS011;41744;52.404;16.942;2022-10-17T12:23:53;17.60;;;9.60;;
55815;SDS011;41744;52.404;16.942;2022-10-17T12:26:24;14.65;;;8.52;;
55815;SDS011;41744;52.404;16.942;2022-10-17T12:28:50;16.60;;;8.38;;
55815;SDS011;41744;52.404;16.942;2022-10-17T12:33:50;17.25;;;8.13;;
55815;SDS011;41744;52.404;16.942;2022-10-17T12:38:46;13.88;;;8.48;;
55815;SDS011;41744;52.404;16.942;2022-10-17T12:41:13;16.15;;;8.88;;
55815;SDS011;41744;52.404;16.942;2022-10-17T12:43:43;16.85;;;8.90;;
55815;SDS011;41744;52.404;16.942;2022-10-17T12:46:09;18.83;;;8.90;;
55815;SDS011;41744;52.404;16.942;2022-10-17T12:56:03;17.40;;;9.05;;
55815;SDS011;41744;52.404;16.942;2022-10-17T12:58:30;14.70;;;8.77;;
55815;SDS011;41744;52.404;16.942;2022-10-17T13:00:56;16.38;;;9.27;;
55815;SDS011;41744;52.404;16.942;2022-10-17T13:03:30;17.55;;;9.02;;
55815;SDS011;41744;52.404;16.942;2022-10-17T13:05:58;17.65;;;9.82;;
55815;SDS011;41744;52.404;16.942;2022-10-17T13:08:27;18.70;;;9.80;;
55815;SDS011;41744;52.404;16.942;2022-10-17T13:10:54;16.92;;;9.68;;
55815;SDS011;41744;52.404;16.942;2022-10-17T13:13:24;16.35;;;10.18;;
55815;SDS011;41744;52.404;16.942;2022-10-17T13:15:52;18.00;;;10.38;;
55815;SDS011;41744;52.404;16.942;2022-10-17T13:18:23;17.30;;;9.82;;
55815;SDS011;41744;52.404;16.942;2022-10-17T13:23:22;19.50;;;10.05;;
55815;SDS011;41744;52.404;16.942;2022-10-17T13:26:00;16.48;;;9.73;;
55815;SDS011;41744;52.404;16.942;2022-10-17T13:28:26;22.13;;;10.45;;
55815;SDS011;41744;52.404;16.942;2022-10-17T13:30:53;19.33;;;10.45;;
55815;SDS011;41744;52.404;16.942;2022-10-17T13:35:54;17.48;;;10.93;;
55815;SDS011;41744;52.404;16.942;2022-10-17T13:38:22;19.05;;;10.70;;
55815;SDS011;41744;52.404;16.942;2022-10-17T13:40:49;17.80;;;10.60;;
55815;SDS011;41744;52.404;16.942;2022-10-17T13:43:16;22.48;;;9.60;;
55815;SDS011;41744;52.404;16.942;2022-10-17T13:45:47;22.52;;;10.73;;
55815;SDS011;41744;52.404;16.942;2022-10-17T13:48:20;22.08;;;11.10;;
55815;SDS011;41744;52.404;16.942;2022-10-17T13:50:49;20.77;;;10.45;;
55815;SDS011;41744;52.404;16.942;2022-10-17T13:53:29;17.73;;;10.38;;
55815;SDS011;41744;52.404;16.942;2022-10-17T13:58:22;22.60;;;11.77;;
55815;SDS011;41744;52.404;16.942;2022-10-17T14:00:48;22.20;;;10.82;;
55815;SDS011;41744;52.404;16.942;2022-10-17T14:03:20;18.08;;;10.63;;
55815;SDS011;41744;52.404;16.942;2022-10-17T14:08:25;19.23;;;10.13;;
55815;SDS011;41744;52.404;16.942;2022-10-17T14:10:51;21.38;;;11.57;;
55815;SDS011;41744;52.404;16.942;2022-10-17T14:13:18;18.90;;;10.45;;
55815;SDS011;41744;52.404;16.942;2022-10-17T14:15:46;21.90;;;11.38;;
55815;SDS011;41744;52.404;16.942;2022-10-17T14:18:45;24.60;;;11.07;;
55815;SDS011;41744;52.404;16.942;2022-10-17T14:21:04;27.50;;;10.63;;
55815;SDS011;41744;52.404;16.942;2022-10-17T14:23:36;22.55;;;10.50;;
55815;SDS011;41744;52.404;16.942;2022-10-17T14:26:03;19.55;;;10.05;;
55815;SDS011;41744;52.404;16.942;2022-10-17T14:28:29;19.50;;;10.80;;
55815;SDS011;41744;52.404;16.942;2022-10-17T14:31:07;21.08;;;11.52;;
55815;SDS011;41744;52.404;16.942;2022-10-17T14:33:34;24.45;;;12.73;;
55815;SDS011;41744;52.404;16.942;2022-10-17T14:36:00;27.20;;;11.20;;
55815;SDS011;41744;52.404;16.942;2022-10-17T14:38:27;19.73;;;11.13;;
55815;SDS011;41744;52.404;16.942;2022-10-17T14:43:38;19.92;;;10.73;;
55815;SDS011;41744;52.404;16.942;2022-10-17T14:46:04;19.85;;;10.85;;
55815;SDS011;41744;52.404;16.942;2022-10-17T14:48:31;18.35;;;11.05;;
55815;SDS011;41744;52.404;16.942;2022-10-17T14:51:05;23.85;;;12.25;;
55815;SDS011;41744;52.404;16.942;2022-10-17T14:53:31;24.95;;;11.38;;
55815;SDS011;41744;52.404;16.942;2022-10-17T14:55:57;24.42;;;11.93;;
55815;SDS011;41744;52.404;16.942;2022-10-17T14:58:25;23.75;;;11.95;;
55815;SDS011;41744;52.404;16.942;2022-10-17T15:00:54;19.17;;;11.40;;
55815;SDS011;41744;52.404;16.942;2022-10-17T15:03:20;22.08;;;11.38;;
55815;SDS011;41744;52.404;16.942;2022-10-17T15:05:47;21.15;;;11.20;;
55815;SDS011;41744;52.404;16.942;2022-10-17T15:08:14;23.08;;;11.23;;
55815;SDS011;41744;52.404;16.942;2022-10-17T15:10:41;17.48;;;10.35;;
55815;SDS011;41744;52.404;16.942;2022-10-17T15:13:07;22.05;;;11.75;;
55815;SDS011;41744;52.404;16.942;2022-10-17T15:15:34;28.27;;;11.65;;
55815;SDS011;41744;52.404;16.942;2022-10-17T15:18:00;20.80;;;10.60;;
55815;SDS011;41744;52.404;16.942;2022-10-17T15:20:26;19.65;;;10.77;;
55815;SDS011;41744;52.404;16.942;2022-10-17T15:22:54;22.15;;;12.02;;
55815;SDS011;41744;52.404;16.942;2022-10-17T15:25:21;20.65;;;11.63;;
55815;SDS011;41744;52.404;16.942;2022-10-17T15:27:47;20.52;;;11.48;;
55815;SDS011;41744;52.404;16.942;2022-10-17T15:30:20;23.08;;;11.18;;
55815;SDS011;41744;52.404;16.942;2022-10-17T15:32:47;22.08;;;11.55;;
55815;SDS011;41744;52.404;16.942;2022-10-17T15:35:14;20.15;;;11.25;;
55815;SDS011;41744;52.404;16.942;2022-10-17T15:37:40;25.00;;;11.88;;
55815;SDS011;41744;52.404;16.942;2022-10-17T15:40:09;26.35;;;11.77;;
55815;SDS011;41744;52.404;16.942;2022-10-17T15:42:37;21.55;;;12.05;;
55815;SDS011;41744;52.404;16.942;2022-10-17T15:45:03;21.13;;;11.90;;
55815;SDS011;41744;52.404;16.942;2022-10-17T15:47:30;25.13;;;11.85;;
55815;SDS011;41744;52.404;16.942;2022-10-17T15:49:59;19.50;;;11.57;;
55815;SDS011;41744;52.404;16.942;2022-10-17T15:52:26;21.90;;;11.80;;
55815;SDS011;41744;52.404;16.942;2022-10-17T15:54:52;21.13;;;12.13;;
55815;SDS011;41744;52.404;16.942;2022-10-17T15:57:22;23.15;;;11.80;;
55815;SDS011;41744;52.404;16.942;2022-10-17T15:59:49;27.65;;;12.48;;
55815;SDS011;41744;52.404;16.942;2022-10-17T16:02:16;22.77;;;12.13;;
55815;SDS011;41744;52.404;16.942;2022-10-17T16:04:42;19.52;;;11.20;;
55815;SDS011;41744;52.404;16.942;2022-10-17T16:07:09;22.73;;;11.93;;